Time;durP1;ratioP1;P1;durP2;ratioP2;P2;SDS_P1;SDS_P2;PMS_P1;PMS_P2;Temp;Humidity;BMP_temperature;BMP_pressure;BME280_temperature;BME280_humidity;BME280_pressure;Samples;Min_cycle;Max_cycle;Signal;HPM_P1;HPM_P2
2021/01/28 00:01:46;;;;;;;7.20;6.07;;;1.60;99.90;;;;;;5090761;28;20665;-92
2021/01/28 00:04:12;;;;;;;7.07;6.32;;;1.60;99.90;;;;;;5091654;28;20257;-93
2021/01/28 00:06:39;;;;;;;9.45;6.20;;;1.60;99.90;;;;;;5093137;28;20218;-93
2021/01/28 00:09:07;;;;;;;6.13;5.32;;;1.60;99.90;;;;;;5097144;28;20211;-93
2021/01/28 00:11:33;;;;;;;7.20;6.00;;;1.60;99.90;;;;;;5133026;22;20220;-89
2021/01/28 00:14:00;;;;;;;7.18;5.35;;;1.70;99.90;;;;;;5093979;28;20230;-92
2021/01/28 00:16:27;;;;;;;7.18;6.10;;;1.70;99.90;;;;;;5081880;28;20742;-90
2021/01/28 00:18:55;;;;;;;8.35;6.20;;;1.70;99.90;;;;;;5074635;28;20208;-89
2021/01/28 00:21:22;;;;;;;7.07;5.68;;;1.70;99.90;;;;;;5074843;28;20220;-88
2021/01/28 00:23:48;;;;;;;6.93;5.32;;;1.70;99.90;;;;;;5077362;28;20200;-87
2021/01/28 00:26:15;;;;;;;7.28;5.60;;;1.80;99.90;;;;;;5077859;28;20305;-89
2021/01/28 00:28:41;;;;;;;6.88;5.35;;;1.80;99.90;;;;;;5076688;28;20673;-89
2021/01/28 00:31:07;;;;;;;7.75;6.15;;;1.80;99.90;;;;;;5076299;28;20212;-89
2021/01/28 00:33:34;;;;;;;6.63;5.40;;;1.80;99.90;;;;;;5075974;28;20208;-89
2021/01/28 00:36:03;;;;;;;7.25;6.00;;;1.80;99.90;;;;;;5072422;28;20722;-89
2021/01/28 00:38:32;;;;;;;6.55;5.85;;;1.80;99.90;;;;;;5072346;28;20720;-89
2021/01/28 00:41:00;;;;;;;8.75;6.47;;;1.80;99.90;;;;;;5055981;28;20208;-90
2021/01/28 00:43:27;;;;;;;7.40;6.15;;;1.80;99.90;;;;;;5055968;28;20239;-88
2021/01/28 00:45:54;;;;;;;8.02;6.07;;;1.80;99.90;;;;;;5061309;28;20284;-89
2021/01/28 00:48:24;;;;;;;6.78;6.07;;;1.80;99.90;;;;;;5056657;28;20211;-89
2021/01/28 00:50:54;;;;;;;7.88;5.90;;;1.80;99.90;;;;;;5066572;28;20703;-89
2021/01/28 00:53:24;;;;;;;5.63;4.85;;;1.80;99.90;;;;;;5075633;28;20224;-90
2021/01/28 00:55:51;;;;;;;8.80;6.22;;;1.80;99.90;;;;;;5076289;28;20955;-90
2021/01/28 00:58:19;;;;;;;7.38;6.07;;;1.80;99.90;;;;;;5076335;28;20232;-89
2021/01/28 01:00:47;;;;;;;8.20;6.40;;;1.80;99.90;;;;;;5076178;28;20646;-89
2021/01/28 01:03:16;;;;;;;6.78;5.85;;;1.80;99.90;;;;;;5075541;28;20224;-90
2021/01/28 01:05:44;;;;;;;7.32;6.03;;;1.80;99.90;;;;;;5075513;28;20674;-89
2021/01/28 01:08:14;;;;;;;7.25;5.60;;;1.80;99.90;;;;;;5076175;28;20204;-89
2021/01/28 01:10:44;;;;;;;6.80;5.70;;;1.80;99.90;;;;;;5076321;28;20217;-89
2021/01/28 01:13:13;;;;;;;7.53;6.70;;;1.90;99.90;;;;;;5076048;28;20311;-88
2021/01/28 01:15:39;;;;;;;7.60;5.78;;;1.90;99.90;;;;;;5076462;28;20215;-88
2021/01/28 01:18:08;;;;;;;7.95;5.30;;;1.90;99.90;;;;;;5088935;28;20208;-89
2021/01/28 01:20:35;;;;;;;8.05;6.95;;;1.90;99.90;;;;;;5099324;28;20188;-89
2021/01/28 01:23:01;;;;;;;9.25;6.22;;;1.80;99.90;;;;;;5090714;28;20220;-88
2021/01/28 01:25:28;;;;;;;6.82;5.60;;;1.80;99.90;;;;;;5089622;28;20223;-88
2021/01/28 01:27:55;;;;;;;8.88;6.20;;;1.90;99.90;;;;;;5097124;28;20207;-88
2021/01/28 01:30:23;;;;;;;8.13;6.15;;;1.90;99.90;;;;;;5075941;28;20212;-88
2021/01/28 01:32:51;;;;;;;8.10;5.82;;;1.90;99.90;;;;;;5073833;28;20216;-88
2021/01/28 01:35:20;;;;;;;6.88;5.50;;;1.90;99.90;;;;;;5074660;28;20227;-88
2021/01/28 01:37:47;;;;;;;8.88;5.82;;;1.90;99.90;;;;;;5074526;28;20249;-88
2021/01/28 01:40:16;;;;;;;6.20;5.07;;;1.90;99.90;;;;;;5074907;28;20212;-88
2021/01/28 01:42:46;;;;;;;5.93;5.25;;;1.90;99.90;;;;;;5074052;28;20243;-89
2021/01/28 01:45:14;;;;;;;8.25;5.68;;;2.00;99.90;;;;;;5074541;28;20653;-88
2021/01/28 01:47:46;;;;;;;5.95;5.13;;;2.00;99.90;;;;;;5074497;28;20212;-91
2021/01/28 01:50:28;;;;;;;6.28;5.30;;;2.00;99.90;;;;;;5074173;28;20211;-90
2021/01/28 01:52:56;;;;;;;6.72;5.50;;;2.00;99.90;;;;;;5073903;28;20204;-89
2021/01/28 01:55:22;;;;;;;7.25;5.63;;;2.00;99.90;;;;;;5074335;28;20278;-90
2021/01/28 01:57:50;;;;;;;6.30;5.35;;;2.00;99.90;;;;;;5074049;28;20900;-89
2021/01/28 02:00:21;;;;;;;5.95;4.72;;;2.00;99.90;;;;;;5074422;28;20208;-90
2021/01/28 02:02:51;;;;;;;6.00;5.38;;;2.00;99.90;;;;;;5073919;28;20212;-90
2021/01/28 02:05:24;;;;;;;6.65;4.85;;;2.00;99.90;;;;;;5074658;28;20207;-88
2021/01/28 02:07:51;;;;;;;5.55;4.50;;;2.00;99.90;;;;;;5073994;28;20250;-89
2021/01/28 02:10:19;;;;;;;6.07;5.03;;;2.00;99.90;;;;;;5074036;28;20204;-89
2021/01/28 02:12:45;;;;;;;6.93;4.93;;;2.00;99.90;;;;;;5073520;28;20232;-89
2021/01/28 02:15:13;;;;;;;5.70;5.05;;;2.00;99.90;;;;;;5073613;28;20975;-88
2021/01/28 02:17:42;;;;;;;6.07;4.82;;;2.00;99.90;;;;;;5073794;28;20208;-88
2021/01/28 02:20:32;;;;;;;5.63;4.50;;;2.00;99.90;;;;;;5073506;28;20204;-88
2021/01/28 02:23:04;;;;;;;6.18;4.88;;;2.00;99.90;;;;;;5073388;28;20220;-88
2021/01/28 02:25:33;;;;;;;5.60;4.60;;;2.00;99.90;;;;;;5073883;28;20205;-88
2021/01/28 02:28:02;;;;;;;4.95;4.45;;;2.00;99.90;;;;;;5074483;28;20253;-88
2021/01/28 02:30:30;;;;;;;5.00;4.05;;;2.00;99.90;;;;;;5073149;28;20207;-88
2021/01/28 02:32:57;;;;;;;4.40;3.97;;;2.10;99.90;;;;;;5073025;28;20232;-88
2021/01/28 02:35:26;;;;;;;5.65;4.68;;;2.10;99.90;;;;;;5073185;28;20232;-88
2021/01/28 02:37:53;;;;;;;6.68;4.40;;;2.10;99.90;;;;;;5073417;28;20577;-89
2021/01/28 02:40:23;;;;;;;3.75;3.15;;;2.10;99.90;;;;;;5073382;28;20193;-88
2021/01/28 02:42:51;;;;;;;6.00;4.10;;;2.20;99.90;;;;;;5073120;28;20228;-89
2021/01/28 02:45:21;;;;;;;5.35;4.25;;;2.10;99.90;;;;;;5073313;28;20653;-88
2021/01/28 02:47:52;;;;;;;5.10;3.92;;;2.20;99.90;;;;;;5073750;28;20196;-88
2021/01/28 02:50:19;;;;;;;4.53;3.50;;;2.20;99.90;;;;;;5072993;28;20239;-88
2021/01/28 02:52:45;;;;;;;4.18;3.30;;;2.20;99.90;;;;;;5073697;28;20265;-89
2021/01/28 02:55:12;;;;;;;3.97;3.40;;;2.20;99.90;;;;;;5072790;28;20703;-89
2021/01/28 02:57:39;;;;;;;3.50;3.20;;;2.20;99.90;;;;;;5079682;28;20207;-88
2021/01/28 03:00:10;;;;;;;5.15;3.85;;;2.30;99.90;;;;;;5098372;28;20197;-88
2021/01/28 03:02:36;;;;;;;4.20;3.50;;;2.30;99.90;;;;;;5093171;28;20220;-87
2021/01/28 03:05:03;;;;;;;3.25;2.70;;;2.30;99.90;;;;;;5073731;28;20254;-88
2021/01/28 03:07:29;;;;;;;3.65;3.35;;;2.30;99.90;;;;;;5073227;28;20204;-89
2021/01/28 03:09:55;;;;;;;3.60;3.10;;;2.30;99.90;;;;;;5074228;28;20262;-88
2021/01/28 03:12:22;;;;;;;3.40;2.75;;;2.30;99.90;;;;;;5074151;28;20274;-88
2021/01/28 03:14:48;;;;;;;4.15;3.00;;;2.30;99.90;;;;;;5074738;28;20224;-89
2021/01/28 03:17:15;;;;;;;3.60;3.30;;;2.30;99.90;;;;;;5073135;28;20204;-89
2021/01/28 03:19:42;;;;;;;4.63;3.13;;;2.30;99.90;;;;;;5072300;28;20215;-88
2021/01/28 03:22:08;;;;;;;3.90;3.05;;;2.40;99.90;;;;;;5071848;28;20232;-88
2021/01/28 03:24:34;;;;;;;3.67;3.08;;;2.40;99.90;;;;;;5072372;28;20570;-89
2021/01/28 03:27:01;;;;;;;4.05;3.28;;;2.40;99.90;;;;;;5072533;28;20204;-89
2021/01/28 03:29:27;;;;;;;4.13;3.50;;;2.40;99.90;;;;;;5072167;28;20208;-90
2021/01/28 03:31:54;;;;;;;5.82;4.28;;;2.40;99.90;;;;;;5071978;28;20228;-89
2021/01/28 03:34:21;;;;;;;3.50;3.20;;;2.40;99.90;;;;;;5072323;28;20213;-89
2021/01/28 03:36:47;;;;;;;3.42;3.13;;;2.40;99.90;;;;;;5072404;28;20577;-89
2021/01/28 03:39:13;;;;;;;3.53;3.03;;;2.40;99.90;;;;;;5072317;28;20212;-88
2021/01/28 03:41:40;;;;;;;5.88;3.40;;;2.40;99.90;;;;;;5072011;28;20255;-88
2021/01/28 03:44:06;;;;;;;5.30;3.47;;;2.40;99.90;;;;;;5072155;28;20227;-88
2021/01/28 03:46:33;;;;;;;3.80;3.03;;;2.40;99.90;;;;;;5072271;28;20288;-88
2021/01/28 03:48:59;;;;;;;4.15;3.17;;;2.40;99.90;;;;;;5072382;28;20212;-87
2021/01/28 03:51:26;;;;;;;4.75;3.38;;;2.40;99.90;;;;;;5072039;28;20228;-89
2021/01/28 03:53:53;;;;;;;3.35;2.70;;;2.50;99.90;;;;;;5071772;28;20220;-89
2021/01/28 03:56:19;;;;;;;3.03;2.83;;;2.50;99.90;;;;;;5071936;28;20201;-89
2021/01/28 03:58:45;;;;;;;3.75;3.22;;;2.70;99.90;;;;;;5072200;28;20208;-89
2021/01/28 04:01:12;;;;;;;3.80;3.40;;;2.70;99.90;;;;;;5072244;28;20196;-89
2021/01/28 04:03:38;;;;;;;4.32;3.92;;;2.70;99.90;;;;;;5072253;28;20200;-89
2021/01/28 04:06:05;;;;;;;4.72;3.80;;;2.60;99.90;;;;;;5072193;28;20230;-89
2021/01/28 04:08:32;;;;;;;4.90;4.30;;;2.70;99.90;;;;;;5072265;28;20215;-88
2021/01/28 04:10:58;;;;;;;6.03;5.25;;;2.60;99.90;;;;;;5079034;28;20211;-89
2021/01/28 04:13:25;;;;;;;10.27;5.95;;;2.60;99.90;;;;;;5071713;28;20259;-89
2021/01/28 04:15:51;;;;;;;8.38;5.25;;;2.60;99.90;;;;;;5072169;28;20704;-89
2021/01/28 04:18:18;;;;;;;8.52;5.40;;;2.60;99.90;;;;;;5072910;28;20200;-88
2021/01/28 04:20:44;;;;;;;7.43;5.30;;;2.50;99.90;;;;;;5072926;28;20244;-88
2021/01/28 04:23:11;;;;;;;8.90;5.88;;;2.50;99.90;;;;;;5072530;28;20301;-89
2021/01/28 04:25:38;;;;;;;7.80;5.70;;;2.50;99.90;;;;;;5073401;28;20200;-89
2021/01/28 04:28:05;;;;;;;6.28;5.30;;;2.50;99.90;;;;;;5073056;28;20205;-91
2021/01/28 04:30:33;;;;;;;6.25;5.53;;;2.50;99.90;;;;;;5073108;28;20204;-89
2021/01/28 04:33:03;;;;;;;7.53;5.75;;;2.50;99.90;;;;;;5084781;28;20201;-91
2021/01/28 04:35:30;;;;;;;7.40;5.50;;;2.50;99.90;;;;;;5097172;28;20317;-90
2021/01/28 04:37:57;;;;;;;9.98;5.25;;;2.50;99.90;;;;;;5074777;28;20213;-89
2021/01/28 04:40:31;;;;;;;7.22;5.57;;;2.50;99.90;;;;;;5073899;28;20261;-90
2021/01/28 04:43:03;;;;;;;7.82;5.60;;;2.40;99.90;;;;;;5073447;28;20228;-92
2021/01/28 04:45:32;;;;;;;7.57;5.65;;;2.50;99.90;;;;;;5073052;28;20626;-92
2021/01/28 04:48:02;;;;;;;7.10;5.00;;;2.50;99.90;;;;;;5073703;28;20204;-91
2021/01/28 04:50:31;;;;;;;7.30;5.30;;;2.50;99.90;;;;;;5079367;28;20280;-90
2021/01/28 04:53:02;;;;;;;8.02;6.00;;;2.50;99.90;;;;;;5087801;28;20284;-90
2021/01/28 04:58:44;;;;;;;9.55;5.70;;;2.50;99.90;;;;;;5073774;28;20222;-91
2021/01/28 05:01:10;;;;;;;7.05;5.47;;;2.40;99.90;;;;;;5072444;28;20231;-90
2021/01/28 05:03:40;;;;;;;6.18;5.32;;;2.50;99.90;;;;;;5073245;28;20204;-91
2021/01/28 05:06:07;;;;;;;9.32;5.75;;;2.50;99.90;;;;;;5071468;28;20317;-90
2021/01/28 05:08:33;;;;;;;8.02;5.75;;;2.50;99.90;;;;;;5074760;28;20211;-91
2021/01/28 05:11:01;;;;;;;6.80;5.22;;;2.50;99.90;;;;;;5075568;28;20208;-90
2021/01/28 05:13:30;;;;;;;7.45;5.72;;;2.50;99.90;;;;;;5082889;28;20242;-90
2021/01/28 05:16:20;;;;;;;6.82;5.60;;;2.50;99.90;;;;;;5077941;28;20217;-91
2021/01/28 05:18:57;;;;;;;7.22;6.50;;;2.60;99.90;;;;;;5074111;28;20454;-90
2021/01/28 05:21:28;;;;;;;7.65;6.13;;;2.50;99.90;;;;;;5075515;28;20220;-89
2021/01/28 05:24:03;;;;;;;8.55;6.10;;;2.60;99.90;;;;;;5075022;28;20570;-91
2021/01/28 05:26:41;;;;;;;7.07;5.80;;;2.60;99.90;;;;;;5073719;28;20199;-91
2021/01/28 05:29:24;;;;;;;7.20;5.63;;;2.60;99.90;;;;;;5073090;28;20192;-90
2021/01/28 05:31:52;;;;;;;9.18;5.65;;;2.60;99.90;;;;;;5074422;28;20251;-90
2021/01/28 05:34:26;;;;;;;7.40;6.03;;;2.60;99.90;;;;;;5074622;28;20747;-90
2021/01/28 05:36:59;;;;;;;6.50;5.15;;;2.70;99.90;;;;;;5074770;28;20220;-90
2021/01/28 05:39:30;;;;;;;7.18;4.95;;;2.70;99.90;;;;;;5075824;28;20231;-91
2021/01/28 05:42:20;;;;;;;7.20;5.70;;;2.70;99.90;;;;;;5075360;28;20228;-90
2021/01/28 05:44:47;;;;;;;7.05;5.32;;;2.70;99.90;;;;;;5075398;28;20222;-90
2021/01/28 05:47:24;;;;;;;5.72;4.90;;;2.70;99.90;;;;;;5074115;28;20669;-90
2021/01/28 05:49:52;;;;;;;7.32;5.38;;;2.70;99.90;;;;;;5074717;28;20731;-90
2021/01/28 05:52:24;;;;;;;5.25;4.28;;;2.70;99.90;;;;;;5073826;28;20251;-89
2021/01/28 05:55:09;;;;;;;6.72;5.00;;;2.70;99.90;;;;;;5073690;28;20225;-91
2021/01/28 05:57:44;;;;;;;6.40;5.28;;;2.70;99.90;;;;;;5074237;28;20212;-90
2021/01/28 06:00:22;;;;;;;6.35;4.70;;;2.80;99.90;;;;;;5074717;28;20284;-90
2021/01/28 06:03:04;;;;;;;6.55;4.70;;;2.80;99.90;;;;;;5075876;28;20220;-90
2021/01/28 06:05:44;;;;;;;5.45;4.50;;;2.70;99.90;;;;;;5075839;28;20277;-89
2021/01/28 06:08:27;;;;;;;7.20;4.93;;;2.80;99.90;;;;;;5075442;28;20196;-90
2021/01/28 06:11:23;;;;;;;4.65;4.15;;;2.80;99.90;;;;;;5075822;28;20239;-90
2021/01/28 06:14:08;;;;;;;6.18;4.47;;;2.80;99.90;;;;;;5077587;28;20200;-89
2021/01/28 06:16:45;;;;;;;5.15;4.10;;;2.80;99.90;;;;;;5077653;28;20586;-89
2021/01/28 06:19:42;;;;;;;6.70;4.38;;;2.80;99.90;;;;;;5087013;28;20226;-90
2021/01/28 06:33:24;;;;;;;4.65;3.70;;;2.90;99.90;;;;;;5076360;28;20239;-90
2021/01/28 06:36:15;;;;;;;6.82;3.78;;;2.90;99.90;;;;;;5039192;28;20313;-90
2021/01/28 06:39:15;;;;;;;6.07;3.47;;;2.90;99.90;;;;;;5028921;28;20210;-89
2021/01/28 06:41:50;;;;;;;6.00;4.00;;;2.90;99.90;;;;;;5033982;28;20324;-88
2021/01/28 06:44:22;;;;;;;5.55;4.00;;;2.90;99.90;;;;;;5034203;28;20232;-90
2021/01/28 06:46:54;;;;;;;5.35;4.50;;;2.90;99.90;;;;;;5046397;28;20267;-89
2021/01/28 06:49:35;;;;;;;5.78;4.10;;;2.90;99.90;;;;;;5046410;28;20280;-89
2021/01/28 06:52:43;;;;;;;6.25;4.80;;;2.90;99.90;;;;;;5036494;28;20229;-88
2021/01/28 06:55:21;;;;;;;4.63;3.95;;;2.90;99.90;;;;;;5035002;28;20240;-89
2021/01/28 06:57:53;;;;;;;6.20;4.05;;;2.90;99.90;;;;;;5036081;28;20285;-89
2021/01/28 07:00:32;;;;;;;6.38;4.25;;;2.90;99.90;;;;;;5034516;28;20217;-89
2021/01/28 07:03:04;;;;;;;7.38;3.97;;;2.90;99.90;;;;;;5038041;28;20229;-88
2021/01/28 07:05:45;;;;;;;4.70;3.95;;;2.90;99.90;;;;;;5034594;28;20208;-89
2021/01/28 07:08:24;;;;;;;5.78;3.97;;;2.90;99.90;;;;;;5035456;28;20643;-90
2021/01/28 07:11:00;;;;;;;7.00;4.40;;;2.90;99.90;;;;;;5037742;28;20209;-90
2021/01/28 07:13:33;;;;;;;6.07;4.22;;;2.90;99.90;;;;;;5035590;28;20712;-89
2021/01/28 07:16:36;;;;;;;5.47;4.43;;;2.90;99.90;;;;;;5034522;28;20420;-89
2021/01/28 07:19:16;;;;;;;4.50;3.72;;;2.90;99.90;;;;;;5033867;28;20286;-89
2021/01/28 07:24:59;;;;;;;4.88;4.15;;;3.00;99.90;;;;;;4957470;22;20235;-89
2021/01/28 07:28:04;;;;;;;5.70;4.57;;;3.00;99.90;;;;;;4953800;28;20196;-89
2021/01/28 07:30:47;;;;;;;5.10;4.10;;;3.00;99.90;;;;;;4952733;28;20189;-88
2021/01/28 07:33:50;;;;;;;6.57;4.53;;;3.00;99.90;;;;;;4953763;28;20231;-89
2021/01/28 07:39:47;;;;;;;7.10;3.85;;;3.00;99.90;;;;;;4955524;28;20689;-91
2021/01/28 07:42:34;;;;;;;6.88;4.13;;;3.00;99.90;;;;;;4952846;28;20256;-90
2021/01/28 07:45:39;;;;;;;4.55;3.53;;;3.10;99.90;;;;;;4955083;28;20208;-90
2021/01/28 07:48:26;;;;;;;4.80;3.65;;;3.10;99.90;;;;;;4947020;28;20200;-89
2021/01/28 07:51:33;;;;;;;3.80;3.30;;;3.10;99.90;;;;;;4948663;28;20287;-89
2021/01/28 07:54:29;;;;;;;4.90;3.40;;;3.20;99.90;;;;;;4952209;29;20208;-92
2021/01/28 08:00:24;;;;;;;3.53;3.00;;;3.20;99.90;;;;;;4941454;28;20239;-89
2021/01/28 08:03:14;;;;;;;3.33;2.72;;;3.30;99.90;;;;;;4958849;28;20275;-89
2021/01/28 08:44:10;;;;;;;2.50;2.13;;;3.60;99.90;;;;;;5059348;23;20239;-91
2021/01/28 08:50:00;;;;;;;2.30;2.08;;;3.70;99.90;;;;;;5033720;28;20883;-90
2021/01/28 08:55:36;;;;;;;2.50;2.03;;;3.70;99.90;;;;;;5059926;28;20278;-90
2021/01/28 10:06:10;;;;;;;4.45;1.80;;;4.30;99.90;;;;;;5021170;28;20238;-92
2021/01/28 10:20:29;;;;;;;3.65;2.25;;;4.50;99.90;;;;;;5331503;22;20232;-94
2021/01/28 10:23:48;;;;;;;2.05;1.35;;;4.60;99.90;;;;;;4943191;29;20217;-91
2021/01/28 10:29:24;;;;;;;1.67;1.52;;;4.70;99.90;;;;;;4923871;29;20201;-93
2021/01/28 10:56:56;;;;;;;2.60;1.55;;;5.00;99.90;;;;;;4926930;28;20305;-91
2021/01/28 11:03:19;;;;;;;2.03;1.70;;;5.10;99.90;;;;;;4930691;28;20251;-93
2021/01/28 11:05:49;;;;;;;2.70;1.52;;;5.10;99.90;;;;;;4927349;29;20288;-91
2021/01/28 11:08:16;;;;;;;1.50;1.40;;;5.30;99.90;;;;;;4922085;28;20220;-91
2021/01/28 11:10:51;;;;;;;1.75;1.33;;;5.30;99.90;;;;;;4922191;29;20267;-93
2021/01/28 11:16:35;;;;;;;3.45;1.65;;;5.30;99.90;;;;;;4918230;28;20229;-92
2021/01/28 11:19:07;;;;;;;1.40;1.20;;;5.30;99.90;;;;;;4919329;28;20210;-93
2021/01/28 11:21:38;;;;;;;1.98;1.67;;;5.30;99.90;;;;;;4922765;28;20317;-92
2021/01/28 11:24:05;;;;;;;2.45;1.30;;;5.40;99.90;;;;;;4919349;28;20274;-91
2021/01/28 11:26:32;;;;;;;2.22;1.30;;;5.40;99.90;;;;;;4919231;28;20225;-92
2021/01/28 11:29:04;;;;;;;3.58;1.60;;;5.40;99.90;;;;;;4918210;28;20304;-91
2021/01/28 11:31:40;;;;;;;2.40;1.92;;;5.40;99.90;;;;;;4916326;28;20760;-91
2021/01/28 13:52:06;;;;;;;1.10;1.00;;;9.20;99.90;;;;;;4955483;29;20228;-91
2021/01/28 13:54:33;;;;;;;1.00;0.90;;;9.20;99.90;;;;;;4957218;29;20275;-91
2021/01/28 13:57:01;;;;;;;0.90;0.80;;;9.20;99.90;;;;;;4957622;29;20212;-92
2021/01/28 13:59:28;;;;;;;1.10;0.90;;;9.20;99.90;;;;;;4954900;28;20639;-90
2021/01/28 14:01:57;;;;;;;1.05;0.90;;;9.30;99.90;;;;;;4958371;28;20233;-90
2021/01/28 14:04:28;;;;;;;0.90;0.80;;;9.30;99.90;;;;;;4961153;28;20205;-92
2021/01/28 14:06:59;;;;;;;0.80;0.70;;;9.30;99.90;;;;;;4959576;29;20197;-91
2021/01/28 14:09:28;;;;;;;1.30;1.20;;;9.40;99.90;;;;;;4959253;28;20208;-89
2021/01/28 14:12:02;;;;;;;1.52;1.00;;;9.40;99.90;;;;;;4958989;29;20228;-90
2021/01/28 14:19:58;;;;;;;2.90;1.17;;;9.20;99.90;;;;;;4947512;28;20212;-89
2021/01/28 14:22:31;;;;;;;2.95;1.45;;;9.20;99.90;;;;;;4959404;28;20287;-89
2021/01/28 14:25:01;;;;;;;2.22;1.35;;;9.10;99.90;;;;;;4960552;28;20232;-90
2021/01/28 14:30:13;;;;;;;1.90;1.10;;;9.10;99.90;;;;;;4963966;28;20613;-91
2021/01/28 14:32:40;;;;;;;1.75;1.17;;;9.00;99.90;;;;;;4953561;29;20712;-91
2021/01/28 14:35:08;;;;;;;2.15;1.35;;;9.10;99.90;;;;;;4959080;28;20731;-91
2021/01/28 14:37:39;;;;;;;1.27;1.05;;;9.10;99.90;;;;;;4953269;28;20604;-92
2021/01/28 14:40:14;;;;;;;4.13;2.00;;;9.10;99.90;;;;;;4953525;28;20246;-91
2021/01/28 14:42:41;;;;;;;5.05;1.10;;;9.10;99.90;;;;;;4954607;28;20228;-91
2021/01/28 14:45:11;;;;;;;1.73;1.15;;;9.10;99.90;;;;;;4955938;28;20244;-91
2021/01/28 14:47:41;;;;;;;1.70;1.00;;;9.10;99.90;;;;;;4955735;28;20231;-91
2021/01/28 14:50:09;;;;;;;5.97;3.10;;;9.10;99.90;;;;;;4955696;28;20215;-91
2021/01/28 14:52:36;;;;;;;1.50;1.20;;;9.10;99.90;;;;;;4955426;28;20225;-90
2021/01/28 14:58:17;;;;;;;1.35;1.10;;;9.20;99.90;;;;;;4957863;29;20192;-90
2021/01/28 15:34:47;;;;;;;2.67;1.30;;;9.20;99.90;;;;;;5154878;22;20243;-90
2021/01/28 15:41:02;;;;;;;2.55;1.90;;;9.30;99.90;;;;;;4841929;29;20200;-90
2021/01/28 18:44:04;;;;;;;2.28;1.15;;;9.60;99.90;;;;;;5270892;22;20660;-70
2021/01/28 18:46:30;;;;;;;1.35;1.23;;;9.50;99.90;;;;;;5042599;28;20225;-71
2021/01/28 18:48:56;;;;;;;1.10;1.00;;;9.50;99.90;;;;;;5041704;28;20640;-70
2021/01/28 18:51:23;;;;;;;1.13;0.90;;;9.50;99.90;;;;;;5043198;28;20680;-72
2021/01/28 18:53:49;;;;;;;1.55;1.00;;;9.50;99.90;;;;;;5042244;28;20225;-71
2021/01/28 18:56:16;;;;;;;1.35;1.10;;;9.50;99.90;;;;;;5042711;28;20203;-71
2021/01/28 18:58:43;;;;;;;1.42;1.05;;;9.50;99.90;;;;;;5042459;28;20252;-72
2021/01/28 19:01:10;;;;;;;1.45;1.20;;;9.50;99.90;;;;;;5042799;28;20208;-70
2021/01/28 19:03:36;;;;;;;1.17;1.08;;;9.50;99.90;;;;;;5041875;28;20812;-70
2021/01/28 19:06:03;;;;;;;1.63;1.30;;;9.50;99.90;;;;;;5041832;28;20236;-71
2021/01/28 19:08:32;;;;;;;1.90;1.70;;;9.40;99.90;;;;;;5041889;28;20364;-71
2021/01/28 19:10:58;;;;;;;1.08;0.98;;;9.50;99.90;;;;;;5039881;28;20747;-71
2021/01/28 19:13:24;;;;;;;1.10;1.00;;;9.50;99.90;;;;;;5042492;28;20248;-70
2021/01/28 19:15:51;;;;;;;1.00;0.90;;;9.50;99.90;;;;;;5043087;28;20248;-70
2021/01/28 19:18:20;;;;;;;1.45;1.10;;;9.50;99.90;;;;;;5042404;28;20604;-72
2021/01/28 19:20:46;;;;;;;1.10;0.90;;;9.50;99.90;;;;;;5041877;28;20614;-70
2021/01/28 19:23:15;;;;;;;1.33;0.95;;;9.40;99.90;;;;;;5042612;28;20216;-69
2021/01/28 19:25:43;;;;;;;2.28;1.08;;;9.40;99.90;;;;;;5042360;28;20232;-71
2021/01/28 19:28:10;;;;;;;1.50;1.20;;;9.40;99.90;;;;;;5043142;28;20205;-70
2021/01/28 19:30:37;;;;;;;1.17;1.08;;;9.50;99.90;;;;;;5043026;28;20209;-70
2021/01/28 19:33:07;;;;;;;1.75;1.10;;;9.50;99.90;;;;;;5040172;28;20228;-70
2021/01/28 19:35:38;;;;;;;1.45;1.17;;;9.40;99.90;;;;;;5042167;28;20205;-70
2021/01/28 19:38:06;;;;;;;3.60;1.73;;;9.40;99.90;;;;;;5039274;28;20695;-71
2021/01/28 19:40:32;;;;;;;1.27;1.10;;;9.40;99.90;;;;;;5041397;28;20201;-71
2021/01/28 19:42:59;;;;;;;1.23;1.13;;;9.50;99.90;;;;;;5039920;28;20548;-72
2021/01/28 19:45:28;;;;;;;1.60;1.30;;;9.60;99.90;;;;;;5041107;28;20298;-72
2021/01/28 19:50:51;;;;;;;1.52;1.42;;;9.60;99.90;;;;;;5032593;28;20646;-72
2021/01/28 19:53:18;;;;;;;1.65;1.17;;;9.60;99.90;;;;;;5039215;28;20267;-72
2021/01/28 19:55:45;;;;;;;6.22;3.47;;;9.60;99.90;;;;;;5040032;28;20212;-72
2021/01/28 19:58:11;;;;;;;2.08;1.63;;;9.60;99.90;;;;;;5040472;28;20232;-72
2021/01/28 20:00:38;;;;;;;2.85;1.60;;;9.60;99.90;;;;;;5040602;28;20240;-72
2021/01/28 20:03:07;;;;;;;4.22;1.80;;;9.70;99.90;;;;;;5039927;28;20281;-72
2021/01/28 20:05:33;;;;;;;1.73;1.27;;;9.70;99.90;;;;;;5040499;28;20225;-72
2021/01/28 20:08:01;;;;;;;1.40;1.00;;;9.70;99.90;;;;;;5040023;28;20205;-72
2021/01/28 20:10:30;;;;;;;3.08;1.98;;;9.70;99.90;;;;;;5040761;28;20209;-72
2021/01/28 20:12:57;;;;;;;4.07;2.83;;;9.60;99.90;;;;;;5040161;28;20229;-72
2021/01/28 20:15:26;;;;;;;2.85;1.98;;;9.60;99.90;;;;;;5041857;28;20922;-72
2021/01/28 20:17:52;;;;;;;1.92;1.38;;;9.60;99.90;;;;;;5040899;28;20205;-72
2021/01/28 20:20:21;;;;;;;1.85;1.30;;;9.50;99.90;;;;;;5040634;28;20205;-72
2021/01/28 20:22:47;;;;;;;2.72;1.42;;;9.50;99.90;;;;;;5039960;28;20224;-74
2021/01/28 20:25:17;;;;;;;1.20;1.10;;;9.50;99.90;;;;;;5043120;28;20251;-73
2021/01/28 20:27:43;;;;;;;1.45;1.35;;;9.50;99.90;;;;;;5042090;28;20486;-73
2021/01/28 20:30:13;;;;;;;1.77;1.45;;;9.40;99.90;;;;;;5043543;28;20515;-71
2021/01/28 20:32:40;;;;;;;7.65;1.50;;;9.40;99.90;;;;;;5040594;28;20225;-71
2021/01/28 20:35:08;;;;;;;1.20;1.10;;;9.40;99.90;;;;;;5041458;28;20326;-71
2021/01/28 20:37:34;;;;;;;1.60;1.15;;;9.40;99.90;;;;;;5043171;28;20239;-71
2021/01/28 20:40:00;;;;;;;2.92;1.70;;;9.40;99.90;;;;;;5044928;28;20473;-71
2021/01/28 20:42:27;;;;;;;1.90;1.52;;;9.40;99.90;;;;;;5044725;28;20209;-71
2021/01/28 20:44:54;;;;;;;2.53;2.05;;;9.30;99.90;;;;;;5046573;28;20217;-71
2021/01/28 20:47:23;;;;;;;2.35;1.70;;;9.30;99.90;;;;;;5046669;28;20205;-71
2021/01/28 20:49:49;;;;;;;4.03;2.45;;;9.30;99.90;;;;;;5046732;28;20205;-71
2021/01/28 20:52:16;;;;;;;4.63;2.42;;;9.20;99.90;;;;;;5046982;28;20209;-71
2021/01/28 20:54:42;;;;;;;3.17;1.70;;;9.20;99.90;;;;;;5047043;28;20694;-71
2021/01/28 20:57:08;;;;;;;2.63;1.63;;;9.20;99.90;;;;;;5047130;28;20243;-71
2021/01/28 20:59:35;;;;;;;4.10;2.30;;;9.10;99.90;;;;;;5046741;28;20228;-71
2021/01/28 21:02:02;;;;;;;5.13;1.98;;;9.00;99.90;;;;;;5046494;28;20204;-71
2021/01/28 21:04:28;;;;;;;3.65;1.80;;;9.00;99.90;;;;;;5046429;28;20853;-71
2021/01/28 21:06:54;;;;;;;3.40;2.30;;;9.00;99.90;;;;;;5046756;28;20200;-71
2021/01/28 21:09:20;;;;;;;2.65;1.50;;;8.90;99.90;;;;;;5047165;28;20365;-71
2021/01/28 21:11:47;;;;;;;1.80;1.35;;;8.90;99.90;;;;;;5045456;28;20201;-71
2021/01/28 21:14:13;;;;;;;3.20;1.80;;;8.90;99.90;;;;;;5047061;28;20703;-71
2021/01/28 21:16:40;;;;;;;1.70;1.33;;;8.90;99.90;;;;;;5047812;28;20220;-71
2021/01/28 21:19:07;;;;;;;2.08;1.50;;;8.80;99.90;;;;;;5048046;28;20220;-72
2021/01/28 21:21:33;;;;;;;2.13;1.77;;;8.80;99.90;;;;;;5047676;28;20200;-72
2021/01/28 21:24:01;;;;;;;1.27;1.17;;;8.80;99.90;;;;;;5047211;28;20267;-71
2021/01/28 21:26:27;;;;;;;1.65;1.50;;;8.80;99.90;;;;;;5047897;28;20209;-71
2021/01/28 21:28:54;;;;;;;1.60;1.50;;;8.70;99.90;;;;;;5046849;28;20237;-71
2021/01/28 21:31:20;;;;;;;1.35;1.20;;;8.70;99.90;;;;;;5047235;28;20609;-72
2021/01/28 21:33:47;;;;;;;2.88;1.67;;;8.60;99.90;;;;;;5045498;28;20221;-71
2021/01/28 21:36:15;;;;;;;1.40;1.30;;;8.60;99.90;;;;;;5047754;28;20747;-71
2021/01/28 21:38:42;;;;;;;1.52;1.42;;;8.50;99.90;;;;;;5046695;28;20209;-71
2021/01/28 21:41:09;;;;;;;1.85;1.52;;;8.50;99.90;;;;;;5046976;28;20594;-72
2021/01/28 21:43:35;;;;;;;3.22;1.50;;;8.50;99.90;;;;;;5047140;28;20462;-72
2021/01/28 21:46:01;;;;;;;1.33;1.23;;;8.50;99.90;;;;;;5047827;28;20519;-72
2021/01/28 21:48:27;;;;;;;1.35;1.15;;;8.40;99.90;;;;;;5046571;28;20582;-72
2021/01/28 21:50:55;;;;;;;2.28;1.42;;;8.40;99.90;;;;;;5047975;28;20201;-72
2021/01/28 21:53:23;;;;;;;1.75;1.60;;;8.40;99.90;;;;;;5047296;28;20232;-72
2021/01/28 21:55:50;;;;;;;3.60;1.27;;;8.40;99.90;;;;;;5047624;28;20587;-71
2021/01/28 21:58:16;;;;;;;1.88;1.45;;;8.40;99.90;;;;;;5048018;28;20209;-72
2021/01/28 22:00:42;;;;;;;1.67;1.40;;;8.40;99.90;;;;;;5047497;28;20557;-71
2021/01/28 22:03:09;;;;;;;1.52;1.42;;;8.40;99.90;;;;;;5048485;28;20225;-71
2021/01/28 22:05:35;;;;;;;1.70;1.58;;;8.40;99.90;;;;;;5051082;28;20468;-71
2021/01/28 22:08:02;;;;;;;1.20;1.10;;;8.40;99.90;;;;;;5051530;28;20332;-71
2021/01/28 22:10:28;;;;;;;1.48;1.30;;;8.40;99.90;;;;;;5051744;28;20205;-71
2021/01/28 22:12:55;;;;;;;1.20;1.10;;;8.40;99.90;;;;;;5049295;28;20272;-72
2021/01/28 22:15:22;;;;;;;1.52;1.00;;;8.30;99.90;;;;;;5050606;28;20216;-72
2021/01/28 22:17:48;;;;;;;1.00;0.90;;;8.30;99.90;;;;;;5047220;28;20436;-71
2021/01/28 22:20:17;;;;;;;2.00;1.08;;;8.30;99.90;;;;;;5047287;28;20197;-72
2021/01/28 22:22:43;;;;;;;1.90;1.20;;;8.40;99.90;;;;;;5046394;28;20586;-72
2021/01/28 22:25:14;;;;;;;1.40;1.27;;;8.40;99.90;;;;;;5041477;28;20861;-71
2021/01/28 22:27:40;;;;;;;1.00;0.90;;;8.50;99.90;;;;;;5025778;28;20213;-72
2021/01/28 22:30:09;;;;;;;1.38;0.98;;;8.50;99.90;;;;;;5025467;28;20202;-71